Time;durP1;ratioP1;P1;durP2;ratioP2;P2;SDS_P1;SDS_P2;PMS_P1;PMS_P2;Temp;Humidity;BMP_temperature;BMP_pressure;BME280_temperature;BME280_humidity;BME280_pressure;Samples;Min_cycle;Max_cycle;Signal;HPM_P1;HPM_P2
2021/11/28 00:02:21;;;;;;;4.82;3.40;;;;;;;1.59;86.82;94657.34;5098487;28;20811;-64
2021/11/28 00:04:49;;;;;;;3.70;2.90;;;;;;;1.60;86.21;94658.16;5106658;28;20500;-64
2021/11/28 00:12:45;;;;;;;3.00;2.70;;;;;;;1.70;84.21;94655.00;5098531;28;20482;-62
2021/11/28 00:15:15;;;;;;;4.28;3.00;;;;;;;1.85;84.73;94648.38;5111964;28;20389;-62
2021/11/28 00:17:41;;;;;;;4.57;3.15;;;;;;;1.83;84.88;94649.63;5108151;28;20386;-62
2021/11/28 00:20:12;;;;;;;5.80;3.40;;;;;;;1.82;85.58;94645.47;5091868;28;20473;-62
2021/11/28 00:22:38;;;;;;;4.22;3.33;;;;;;;1.62;87.18;94645.78;5091555;28;20433;-62
2021/11/28 00:25:10;;;;;;;3.75;3.40;;;;;;;1.91;85.50;94639.72;5091692;28;20444;-63
2021/11/28 00:27:36;;;;;;;4.72;3.30;;;;;;;1.84;85.96;94641.63;5097744;28;20465;-62
2021/11/28 00:30:04;;;;;;;4.05;3.15;;;;;;;1.80;85.56;94644.91;5114786;28;20471;-63
2021/11/28 00:32:30;;;;;;;3.73;3.10;;;;;;;1.69;86.22;94651.63;5095830;28;20556;-62
2021/11/28 00:34:55;;;;;;;3.97;3.57;;;;;;;1.91;85.60;94641.53;5096098;28;20819;-62
2021/11/28 00:37:21;;;;;;;4.77;3.63;;;;;;;1.79;86.66;94644.09;5095638;28;20487;-63
2021/11/28 00:39:47;;;;;;;4.23;3.40;;;;;;;1.72;86.51;94651.19;5115816;28;20482;-63
2021/11/28 00:42:14;;;;;;;3.42;3.10;;;;;;;1.63;87.01;94648.16;5096628;28;20841;-63
2021/11/28 00:44:39;;;;;;;4.60;3.20;;;;;;;1.95;84.60;94647.84;5109832;28;20402;-63
2021/11/28 00:47:05;;;;;;;4.85;3.08;;;;;;;1.86;85.00;94649.94;5103958;28;20393;-63
2021/11/28 00:49:30;;;;;;;3.10;2.63;;;;;;;1.85;85.12;94657.91;5113125;28;20427;-64
2021/11/28 00:51:56;;;;;;;3.47;3.00;;;;;;;1.80;85.11;94648.25;5114802;28;20404;-64
2021/11/28 00:54:23;;;;;;;3.88;3.05;;;;;;;1.84;85.03;94651.97;5113220;28;20800;-63
2021/11/28 00:56:49;;;;;;;4.15;3.00;;;;;;;1.61;85.66;94645.03;5108586;28;20398;-63
2021/11/28 00:59:15;;;;;;;4.00;2.80;;;;;;;1.78;85.32;94637.38;5095672;28;20904;-63
2021/11/28 01:01:41;;;;;;;5.07;3.10;;;;;;;1.78;85.40;94642.56;5100548;28;20412;-63
2021/11/28 01:04:07;;;;;;;3.55;3.20;;;;;;;1.90;84.07;94643.31;5097582;28;20436;-64
2021/11/28 01:06:33;;;;;;;4.35;2.90;;;;;;;1.75;85.06;94644.78;5095029;28;20858;-63
2021/11/28 01:08:58;;;;;;;4.32;3.10;;;;;;;1.51;85.52;94644.75;5095192;28;20401;-62
2021/11/28 01:11:24;;;;;;;5.35;3.08;;;;;;;1.57;85.88;94645.66;5108085;28;20387;-64
2021/11/28 01:13:51;;;;;;;3.27;2.80;;;;;;;1.60;84.96;94643.44;5115053;28;20389;-63
2021/11/28 01:16:19;;;;;;;3.28;2.97;;;;;;;1.61;85.68;94651.97;5095973;28;20482;-64
2021/11/28 01:18:44;;;;;;;3.65;3.00;;;;;;;1.59;85.11;94652.19;5095122;28;20397;-64
2021/11/28 01:21:10;;;;;;;3.95;2.75;;;;;;;1.69;84.24;94659.38;5094900;28;20394;-64
2021/11/28 01:23:36;;;;;;;4.37;3.00;;;;;;;1.63;84.98;94657.69;5095077;28;20400;-63
2021/11/28 01:26:01;;;;;;;4.25;2.97;;;;;;;1.65;85.59;94658.25;5107875;28;20916;-63
2021/11/28 01:28:27;;;;;;;4.25;2.90;;;;;;;1.64;85.75;94662.63;5094808;28;20478;-63
2021/11/28 01:30:52;;;;;;;2.80;2.60;;;;;;;1.53;85.90;94667.78;5086126;28;20420;-62
2021/11/28 01:33:18;;;;;;;4.47;2.90;;;;;;;1.53;86.38;94665.19;5114973;28;20388;-63
2021/11/28 01:35:44;;;;;;;3.80;2.67;;;;;;;1.67;86.34;94671.75;5114277;28;20903;-63
2021/11/28 01:38:09;;;;;;;3.38;3.08;;;;;;;1.78;85.98;94678.72;5093885;28;20394;-64
2021/11/28 01:40:35;;;;;;;4.03;3.10;;;;;;;1.75;85.94;94684.31;5098422;28;20388;-63
2021/11/28 01:43:07;;;;;;;4.00;3.25;;;;;;;2.01;84.04;94680.47;5099101;28;20881;-62
2021/11/28 01:45:35;;;;;;;5.18;3.80;;;;;;;1.85;84.40;94691.50;5075761;28;20832;-63
2021/11/28 01:48:08;;;;;;;4.40;3.20;;;;;;;1.63;86.00;94686.88;5075780;28;20793;-62
2021/11/28 01:50:37;;;;;;;3.88;3.10;;;;;;;1.62;85.99;94684.50;5112867;28;20798;-64
2021/11/28 01:53:08;;;;;;;3.40;3.05;;;;;;;1.67;86.32;94687.22;5093804;28;20808;-62
2021/11/28 01:55:35;;;;;;;6.15;3.30;;;;;;;1.67;86.73;94693.16;5093932;28;20402;-62
2021/11/28 01:58:03;;;;;;;4.00;3.13;;;;;;;1.77;85.77;94689.25;5075883;28;20940;-62
2021/11/28 02:00:32;;;;;;;3.20;2.78;;;;;;;1.80;86.67;94684.41;5093983;28;20409;-64
2021/11/28 02:02:58;;;;;;;4.25;2.85;;;;;;;1.72;86.89;94686.56;5093952;28;20398;-63
2021/11/28 02:05:25;;;;;;;3.50;3.10;;;;;;;1.69;86.57;94682.63;5092754;28;20452;-63
2021/11/28 02:07:51;;;;;;;4.00;2.95;;;;;;;1.62;86.71;94687.88;5081915;28;20394;-64
2021/11/28 02:10:18;;;;;;;3.28;2.80;;;;;;;1.75;86.31;94691.25;5103308;28;20404;-63
2021/11/28 02:12:45;;;;;;;3.13;2.80;;;;;;;1.82;86.21;94685.00;5093651;28;20904;-63
2021/11/28 02:15:14;;;;;;;4.20;2.70;;;;;;;1.84;85.21;94687.34;5075426;28;20390;-64
2021/11/28 02:17:40;;;;;;;4.80;2.70;;;;;;;1.80;85.13;94681.03;5094187;28;20723;-63
2021/11/28 02:20:07;;;;;;;4.13;2.80;;;;;;;1.74;85.49;94694.84;5093935;28;20447;-64
2021/11/28 02:22:33;;;;;;;4.10;2.83;;;;;;;1.72;85.44;94692.50;5112407;28;20402;-63
2021/11/28 02:25:04;;;;;;;2.83;2.57;;;;;;;1.95;85.40;94686.56;5113544;28;20396;-63
2021/11/28 02:27:29;;;;;;;3.83;2.83;;;;;;;1.89;85.34;94683.09;5104055;28;20739;-63
2021/11/28 02:29:55;;;;;;;4.40;2.90;;;;;;;2.01;84.67;94681.28;5093403;28;20386;-63
2021/11/28 02:32:20;;;;;;;3.00;2.40;;;;;;;1.85;86.05;94678.56;5098385;28;20392;-62
2021/11/28 02:34:45;;;;;;;5.13;2.80;;;;;;;1.89;84.89;94675.34;5113622;28;20411;-63
2021/11/28 02:37:11;;;;;;;3.33;2.60;;;;;;;1.77;85.59;94677.13;5095074;28;20384;-63
2021/11/28 02:39:36;;;;;;;3.00;2.73;;;;;;;1.71;85.67;94677.22;5113471;28;20419;-62
2021/11/28 02:42:03;;;;;;;3.00;2.43;;;;;;;1.96;84.53;94670.03;5110526;28;20417;-63
2021/11/28 02:44:31;;;;;;;2.67;2.38;;;;;;;1.88;84.16;94670.41;5094072;28;20418;-63
2021/11/28 02:46:56;;;;;;;3.05;2.30;;;;;;;1.83;84.88;94671.06;5093036;28;20394;-63
2021/11/28 02:49:22;;;;;;;3.97;2.50;;;;;;;1.99;84.15;94664.44;5091930;28;20393;-63
2021/11/28 02:51:48;;;;;;;2.97;2.22;;;;;;;2.08;83.22;94669.03;5092473;28;20398;-63
2021/11/28 02:54:14;;;;;;;3.42;2.42;;;;;;;2.09;83.61;94669.81;5093162;28;20440;-63
2021/11/28 02:56:45;;;;;;;2.80;2.25;;;;;;;1.88;84.58;94678.16;5100072;28;20396;-63
2021/11/28 02:59:12;;;;;;;3.50;2.50;;;;;;;1.93;84.58;94676.47;5111067;28;20499;-63
2021/11/28 03:01:37;;;;;;;3.10;2.10;;;;;;;2.17;83.70;94679.03;5094765;28;20392;-63
2021/11/28 03:04:03;;;;;;;2.67;2.37;;;;;;;2.14;82.99;94669.94;5110417;28;20512;-62
2021/11/28 03:06:29;;;;;;;4.18;2.40;;;;;;;2.00;82.87;94671.19;5112150;28;20462;-62
2021/11/28 03:08:54;;;;;;;2.67;2.20;;;;;;;2.14;82.59;94669.13;5111599;28;20385;-63
2021/11/28 03:11:20;;;;;;;4.38;2.20;;;;;;;1.99;83.51;94670.41;5092609;28;20394;-63
2021/11/28 03:13:48;;;;;;;4.85;2.20;;;;;;;2.01;83.80;94673.53;5093451;28;20432;-63
2021/11/28 03:16:17;;;;;;;3.40;2.30;;;;;;;2.19;83.04;94672.63;5092253;28;20417;-63
2021/11/28 03:18:43;;;;;;;4.70;2.30;;;;;;;2.23;82.14;94676.31;5074528;28;20875;-63
2021/11/28 03:21:12;;;;;;;2.33;1.95;;;;;;;2.21;82.69;94669.81;5094901;28;20396;-62
2021/11/28 03:23:40;;;;;;;2.70;1.75;;;;;;;2.26;81.81;94678.47;5111298;28;20395;-63
2021/11/28 03:26:07;;;;;;;2.40;1.98;;;;;;;2.12;82.65;94678.94;5112121;28;20400;-62
2021/11/28 03:28:34;;;;;;;2.47;2.10;;;;;;;1.95;83.71;94666.66;5112356;28;20388;-63
2021/11/28 03:31:00;;;;;;;1.95;1.73;;;;;;;1.97;83.90;94662.06;5112062;28;20406;-63
2021/11/28 03:33:25;;;;;;;3.60;2.30;;;;;;;2.04;83.20;94659.38;5102912;28;20484;-63
2021/11/28 03:35:51;;;;;;;3.13;2.10;;;;;;;1.99;83.58;94662.66;5107215;28;20400;-62
2021/11/28 03:38:16;;;;;;;2.87;2.00;;;;;;;2.09;83.21;94656.91;5111950;28;20879;-63
2021/11/28 03:40:41;;;;;;;2.47;2.00;;;;;;;2.08;84.57;94663.88;5112065;28;20433;-64
2021/11/28 03:43:07;;;;;;;2.72;1.92;;;;;;;2.04;84.45;94656.81;5103283;28;20429;-63
2021/11/28 03:45:34;;;;;;;3.17;2.03;;;;;;;2.03;85.24;94653.44;5091597;28;20409;-62
2021/11/28 03:48:00;;;;;;;3.13;2.20;;;;;;;2.11;84.42;94652.31;5109880;28;20479;-61
2021/11/28 03:50:25;;;;;;;3.60;2.17;;;;;;;2.32;83.23;94649.13;5107214;28;20551;-63
2021/11/28 03:52:51;;;;;;;3.33;2.20;;;;;;;2.29;82.93;94651.38;5099739;28;20404;-62
2021/11/28 03:55:17;;;;;;;2.67;2.20;;;;;;;2.21;83.67;94649.16;5111896;28;20398;-63
2021/11/28 03:57:43;;;;;;;3.63;2.20;;;;;;;2.11;84.00;94659.28;5110300;28;20497;-62
2021/11/28 04:00:11;;;;;;;2.40;2.17;;;;;;;2.04;84.87;94664.56;5092634;28;20416;-63
2021/11/28 04:02:36;;;;;;;2.38;2.10;;;;;;;1.99;84.79;94661.84;5105009;28;20404;-63
2021/11/28 04:05:03;;;;;;;3.77;2.30;;;;;;;2.05;84.61;94659.16;5108800;28;20501;-64
2021/11/28 04:07:30;;;;;;;2.70;2.10;;;;;;;2.27;84.26;94666.31;5091756;28;20390;-63
2021/11/28 04:09:55;;;;;;;2.33;2.10;;;;;;;2.10;84.82;94671.41;5091790;28;20762;-62
2021/11/28 04:12:21;;;;;;;3.70;2.13;;;;;;;2.10;84.63;94668.81;5102990;28;20399;-62
2021/11/28 04:14:46;;;;;;;3.50;2.15;;;;;;;2.04;84.81;94661.97;5097051;28;20382;-64
2021/11/28 04:17:12;;;;;;;3.03;2.40;;;;;;;2.00;84.71;94655.69;5092496;28;20398;-62
2021/11/28 04:19:38;;;;;;;3.37;2.40;;;;;;;2.02;84.83;94658.81;5091908;28;20390;-63
2021/11/28 04:22:03;;;;;;;3.03;2.30;;;;;;;2.07;85.03;94661.50;5100059;28;20890;-63
2021/11/28 04:24:29;;;;;;;3.17;2.35;;;;;;;2.21;83.73;94654.31;5111798;28;20396;-62
2021/11/28 04:26:55;;;;;;;3.13;2.40;;;;;;;2.33;82.45;94649.91;5110140;28;20488;-63
2021/11/28 04:29:21;;;;;;;3.80;2.50;;;;;;;2.21;83.86;94655.09;5111318;28;20855;-62
2021/11/28 04:31:48;;;;;;;3.08;2.55;;;;;;;2.14;84.40;94653.63;5105380;28;20390;-62
2021/11/28 04:34:14;;;;;;;5.07;2.63;;;;;;;2.14;83.54;94649.25;5091622;28;20417;-62
2021/11/28 04:36:39;;;;;;;3.42;2.28;;;;;;;2.18;84.19;94644.41;5092018;28;20386;-62
2021/11/28 04:39:05;;;;;;;3.22;2.30;;;;;;;2.06;83.96;94655.53;5091497;28;20892;-62
2021/11/28 04:41:31;;;;;;;4.60;2.40;;;;;;;2.19;83.16;94657.13;5095602;28;20752;-64
2021/11/28 04:43:57;;;;;;;3.25;2.17;;;;;;;2.02;84.13;94649.28;5111740;28;20434;-62
2021/11/28 04:46:22;;;;;;;4.07;2.40;;;;;;;2.10;83.91;94642.97;5109449;28;20408;-62
2021/11/28 04:48:48;;;;;;;3.17;2.40;;;;;;;2.25;83.23;94643.28;5111679;28;20395;-62
2021/11/28 04:51:13;;;;;;;3.67;2.40;;;;;;;2.04;84.06;94649.84;5092221;28;20829;-63
2021/11/28 04:53:39;;;;;;;2.25;1.95;;;;;;;2.08;83.12;94645.00;5106018;28;20416;-63
2021/11/28 04:56:05;;;;;;;3.77;2.47;;;;;;;2.18;83.25;94658.13;5099194;28;20875;-63
2021/11/28 04:58:30;;;;;;;4.40;2.20;;;;;;;2.15;83.18;94652.63;5111335;28;20456;-63
2021/11/28 05:00:56;;;;;;;4.17;2.20;;;;;;;2.28;82.67;94650.59;5111536;28;20443;-62
2021/11/28 05:03:21;;;;;;;4.17;2.27;;;;;;;2.26;83.31;94644.88;5096126;28;20601;-63
2021/11/28 05:05:47;;;;;;;3.63;2.30;;;;;;;2.33;82.01;94649.91;5101400;28;20430;-63
2021/11/28 05:08:12;;;;;;;2.57;1.90;;;;;;;2.22;83.81;94640.38;5095010;28;20400;-63
2021/11/28 05:10:38;;;;;;;2.20;1.80;;;;;;;2.30;82.58;94640.81;5111337;28;20388;-63
2021/11/28 05:13:03;;;;;;;3.33;2.10;;;;;;;2.21;83.90;94646.56;5102235;28;20400;-63
2021/11/28 05:15:29;;;;;;;2.95;2.10;;;;;;;2.05;84.42;94648.84;5097186;28;20874;-62
2021/11/28 05:17:54;;;;;;;2.47;1.90;;;;;;;2.09;84.91;94651.75;5114935;28;20483;-63
2021/11/28 05:20:20;;;;;;;2.40;1.70;;;;;;;2.17;83.98;94643.66;5115126;28;20753;-64
2021/11/28 05:22:46;;;;;;;2.35;1.95;;;;;;;2.14;83.58;94645.88;5115020;28;20400;-63
2021/11/28 05:25:12;;;;;;;2.33;1.80;;;;;;;2.14;84.79;94649.25;5101088;28;20426;-63
2021/11/28 05:27:38;;;;;;;2.00;1.83;;;;;;;2.08;84.60;94645.00;5114645;28;20775;-62
2021/11/28 05:30:05;;;;;;;3.03;2.00;;;;;;;2.05;85.02;94646.25;5111451;28;20397;-64
2021/11/28 05:32:30;;;;;;;2.07;1.63;;;;;;;2.20;84.66;94645.78;5096179;28;20866;-63
2021/11/28 05:34:56;;;;;;;3.00;1.87;;;;;;;2.44;82.59;94647.31;5105271;28;20407;-62
2021/11/28 05:37:22;;;;;;;2.10;1.73;;;;;;;2.18;84.20;94649.59;5114427;28;20852;-62
2021/11/28 05:39:48;;;;;;;2.58;1.85;;;;;;;2.31;83.00;94646.75;5114787;28;20895;-62
2021/11/28 05:42:14;;;;;;;2.80;1.75;;;;;;;2.30;83.32;94651.16;5105929;28;20436;-64
2021/11/28 05:44:39;;;;;;;2.30;1.80;;;;;;;2.24;83.47;94657.22;5094187;28;20497;-62
2021/11/28 05:47:05;;;;;;;2.47;2.00;;;;;;;2.12;84.18;94655.69;5094130;28;20389;-64
2021/11/28 05:49:30;;;;;;;1.77;1.60;;;;;;;2.13;85.54;94652.06;5097843;28;20871;-63
2021/11/28 05:51:56;;;;;;;1.80;1.70;;;;;;;1.96;85.22;94660.50;5107256;28;20417;-62
2021/11/28 05:54:22;;;;;;;2.60;1.60;;;;;;;2.11;84.51;94664.44;5094662;28;20402;-62
2021/11/28 05:56:48;;;;;;;2.00;1.70;;;;;;;2.29;83.88;94664.28;5094204;28;20476;-62
2021/11/28 05:59:13;;;;;;;2.20;1.58;;;;;;;2.02;85.56;94662.19;5111275;28;20469;-62
2021/11/28 06:01:39;;;;;;;3.03;1.88;;;;;;;2.01;86.70;94670.16;5095810;28;20890;-63
2021/11/28 06:04:04;;;;;;;1.90;1.60;;;;;;;2.15;86.29;94668.94;5096477;28;20922;-62
2021/11/28 06:06:30;;;;;;;2.00;1.80;;;;;;;2.28;85.08;94673.88;5104223;28;20715;-61
2021/11/28 06:08:56;;;;;;;1.90;1.60;;;;;;;2.06;87.16;94673.63;5093941;28;20708;-62
2021/11/28 06:11:21;;;;;;;1.92;1.83;;;;;;;2.07;86.67;94677.78;5096798;28;20441;-63
2021/11/28 06:13:47;;;;;;;2.20;1.90;;;;;;;2.13;86.56;94681.28;5108934;28;20809;-62
2021/11/28 06:16:12;;;;;;;2.80;1.90;;;;;;;2.14;86.53;94682.06;5093492;28;20755;-63
2021/11/28 06:18:38;;;;;;;2.70;1.80;;;;;;;1.98;87.68;94679.16;5093953;28;20401;-63
2021/11/28 06:21:03;;;;;;;2.27;2.00;;;;;;;2.03;87.01;94679.25;5094393;28;20800;-62
2021/11/28 06:23:29;;;;;;;2.20;1.92;;;;;;;2.08;86.71;94678.56;5075286;28;20398;-62
2021/11/28 06:25:55;;;;;;;3.08;1.85;;;;;;;1.87;87.62;94679.16;5103837;28;20876;-62
2021/11/28 06:28:20;;;;;;;3.30;1.90;;;;;;;1.96;87.34;94683.75;5113732;28;20396;-62
2021/11/28 06:30:46;;;;;;;3.03;2.00;;;;;;;2.09;86.07;94693.88;5111824;28;20479;-61
2021/11/28 06:33:11;;;;;;;4.30;2.50;;;;;;;1.99;87.36;94687.69;5113427;28;20435;-63
2021/11/28 06:35:37;;;;;;;2.40;2.10;;;;;;;1.96;87.10;94688.91;5105952;28;20441;-62
2021/11/28 06:38:02;;;;;;;3.67;1.90;;;;;;;2.05;86.94;94689.38;5093412;28;20423;-62
2021/11/28 06:40:28;;;;;;;3.87;2.00;;;;;;;1.99;87.40;94680.72;5107593;28;20395;-62
2021/11/28 06:42:53;;;;;;;2.75;2.20;;;;;;;2.18;87.63;94683.16;5113194;28;20392;-63
2021/11/28 06:45:19;;;;;;;3.05;2.30;;;;;;;2.13;87.54;94690.81;5108530;28;20409;-62
2021/11/28 06:47:45;;;;;;;2.83;2.00;;;;;;;2.03;87.88;94689.59;5092934;28;20494;-62
2021/11/28 06:50:11;;;;;;;3.67;2.30;;;;;;;2.31;86.81;94691.50;5104928;28;20752;-62
2021/11/28 06:52:36;;;;;;;5.70;3.50;;;;;;;2.23;85.61;94698.81;5094769;28;20409;-62
2021/11/28 06:55:02;;;;;;;6.35;3.60;;;;;;;2.16;85.47;94693.75;5093041;28;20423;-62
2021/11/28 06:57:28;;;;;;;6.30;4.25;;;;;;;2.34;85.27;94695.44;5092951;28;20409;-62
2021/11/28 06:59:53;;;;;;;4.32;3.20;;;;;;;2.34;85.54;94691.03;5099934;28;20473;-62
2021/11/28 07:02:20;;;;;;;3.80;2.50;;;;;;;2.20;85.75;94697.44;5098174;28;20746;-62
2021/11/28 07:04:45;;;;;;;4.25;2.75;;;;;;;1.95;86.26;94708.00;5099840;28;20792;-62
2021/11/28 07:07:11;;;;;;;4.90;2.97;;;;;;;2.17;86.52;94710.03;5093387;28;20486;-62
2021/11/28 07:09:37;;;;;;;3.40;2.77;;;;;;;2.14;87.20;94716.44;5092605;28;20392;-63
2021/11/28 07:12:03;;;;;;;4.45;2.75;;;;;;;1.91;88.18;94704.28;5104075;28;20483;-63
2021/11/28 07:14:29;;;;;;;4.18;2.75;;;;;;;1.97;88.33;94706.00;5112451;28;20872;-63
2021/11/28 07:16:54;;;;;;;4.25;2.60;;;;;;;2.01;88.57;94708.91;5110372;28;20402;-63
2021/11/28 07:19:20;;;;;;;3.60;2.43;;;;;;;1.88;89.50;94714.31;5092447;28;20451;-63
2021/11/28 07:21:45;;;;;;;3.27;2.43;;;;;;;2.00;88.45;94715.88;5101165;28;20391;-63
2021/11/28 07:24:12;;;;;;;3.53;2.78;;;;;;;2.06;88.15;94707.22;5112307;28;20393;-63
2021/11/28 07:26:37;;;;;;;3.80;2.78;;;;;;;2.11;87.79;94716.09;5112191;28;20399;-63
2021/11/28 07:29:03;;;;;;;3.30;2.53;;;;;;;2.14;87.05;94718.22;5112132;28;20750;-64
2021/11/28 07:31:28;;;;;;;3.57;2.60;;;;;;;2.28;86.14;94719.59;5106331;28;20429;-64
2021/11/28 07:33:54;;;;;;;3.73;2.50;;;;;;;2.09;86.97;94719.69;5100319;28;20432;-63
2021/11/28 07:36:19;;;;;;;2.60;2.40;;;;;;;2.04;86.99;94716.22;5091805;28;20389;-64
2021/11/28 07:38:45;;;;;;;3.70;2.70;;;;;;;2.21;86.47;94717.13;5092041;28;20396;-63
2021/11/28 07:41:11;;;;;;;4.20;2.93;;;;;;;2.23;85.42;94716.91;5095043;28;20389;-63
2021/11/28 07:43:37;;;;;;;4.50;3.05;;;;;;;2.46;85.49;94716.84;5111737;28;20400;-62
2021/11/28 07:46:03;;;;;;;3.30;2.92;;;;;;;2.29;86.34;94719.34;5111529;28;20433;-62
2021/11/28 07:48:29;;;;;;;5.10;3.85;;;;;;;2.57;85.12;94721.22;5098411;28;20394;-64
2021/11/28 07:50:55;;;;;;;4.97;4.30;;;;;;;2.48;85.21;94715.63;5108517;28;20411;-63
2021/11/28 07:53:20;;;;;;;5.70;4.18;;;;;;;2.54;85.52;94705.41;5093258;28;21021;-67
2021/11/28 07:55:45;;;;;;;5.35;4.10;;;;;;;2.02;87.83;94708.69;5112335;28;20445;-65
2021/11/28 07:58:12;;;;;;;8.90;5.53;;;;;;;2.43;86.48;94717.31;5098238;28;20496;-67
2021/11/28 08:00:38;;;;;;;8.27;5.55;;;;;;;2.76;85.29;94714.13;5075478;28;20451;-63
2021/11/28 08:03:04;;;;;;;6.68;4.80;;;;;;;2.70;84.22;94715.81;5109945;28;20422;-61
2021/11/28 08:05:31;;;;;;;7.50;4.88;;;;;;;2.69;85.09;94716.81;5100116;28;20421;-62
2021/11/28 08:07:57;;;;;;;5.10;4.60;;;;;;;2.47;85.94;94716.63;5091790;28;20447;-62
2021/11/28 08:10:23;;;;;;;5.32;4.25;;;;;;;2.31;87.66;94713.97;5091706;28;20397;-62
2021/11/28 08:12:49;;;;;;;4.93;4.32;;;;;;;2.35;87.36;94717.66;5091988;28;20425;-63
2021/11/28 08:15:21;;;;;;;5.30;3.92;;;;;;;2.38;86.60;94717.22;5091367;28;20396;-61
2021/11/28 08:17:48;;;;;;;4.55;3.72;;;;;;;2.59;86.02;94714.03;5092098;28;20720;-61
2021/11/28 08:20:15;;;;;;;5.40;3.95;;;;;;;2.44;85.77;94724.06;5108671;28;20392;-64
2021/11/28 08:22:40;;;;;;;4.47;3.60;;;;;;;2.64;85.85;94721.91;5095686;28;20388;-63
2021/11/28 08:25:08;;;;;;;4.17;3.57;;;;;;;2.62;85.27;94726.50;5111629;28;20453;-63
2021/11/28 08:27:34;;;;;;;5.35;3.70;;;;;;;2.70;86.52;94720.19;5096191;28;20413;-63
2021/11/28 08:30:03;;;;;;;4.95;3.13;;;;;;;2.76;84.99;94722.66;5091722;28;20870;-62
2021/11/28 08:32:29;;;;;;;3.50;2.92;;;;;;;2.76;84.92;94716.69;5097362;28;20395;-62
2021/11/28 08:34:54;;;;;;;3.80;2.70;;;;;;;2.96;82.60;94718.88;5111435;28;20779;-62
2021/11/28 08:37:20;;;;;;;3.27;2.83;;;;;;;2.95;83.02;94725.88;5098596;28;20394;-62
2021/11/28 08:39:46;;;;;;;3.50;2.80;;;;;;;3.00;83.22;94725.19;5091482;28;20446;-63
2021/11/28 08:42:13;;;;;;;3.88;2.83;;;;;;;2.82;83.33;94733.91;5104231;28;20866;-64
2021/11/28 08:44:39;;;;;;;6.13;3.17;;;;;;;3.13;81.45;94730.09;5082652;28;20496;-63
2021/11/28 08:47:05;;;;;;;4.73;3.20;;;;;;;2.73;83.11;94743.78;5098176;28;20405;-63
2021/11/28 08:49:30;;;;;;;5.03;3.30;;;;;;;3.17;80.93;94742.34;5095974;28;20444;-63
2021/11/28 08:51:56;;;;;;;4.67;3.67;;;;;;;3.19;81.66;94750.66;5107188;28;20438;-63
2021/11/28 08:54:21;;;;;;;4.27;3.37;;;;;;;3.08;82.33;94751.47;5115341;28;20580;-62
2021/11/28 08:56:50;;;;;;;5.65;3.70;;;;;;;2.85;82.66;94743.78;5115129;28;20403;-63
2021/11/28 08:59:16;;;;;;;5.22;3.65;;;;;;;2.98;82.44;94756.47;5099643;28;20396;-63
2021/11/28 09:01:42;;;;;;;5.18;3.60;;;;;;;3.20;81.57;94757.41;5097432;28;20401;-64
2021/11/28 09:04:07;;;;;;;4.35;3.40;;;;;;;3.03;82.30;94756.56;5112687;28;20436;-64
2021/11/28 09:06:33;;;;;;;4.70;3.70;;;;;;;3.03;83.39;94760.94;5113945;28;20404;-62
2021/11/28 09:08:59;;;;;;;4.57;3.77;;;;;;;3.17;82.75;94752.72;5114907;28;20515;-63
2021/11/28 09:11:25;;;;;;;4.13;3.30;;;;;;;3.21;82.51;94758.19;5114927;28;20400;-64
2021/11/28 09:13:50;;;;;;;4.63;3.50;;;;;;;3.19;83.61;94758.41;5114170;28;20404;-63
2021/11/28 09:16:16;;;;;;;5.07;3.10;;;;;;;3.25;82.02;94757.50;5101870;28;20441;-63
2021/11/28 09:18:46;;;;;;;3.85;3.30;;;;;;;3.19;81.96;94766.19;5104482;28;20404;-63
2021/11/28 09:21:15;;;;;;;5.43;3.38;;;;;;;3.38;81.36;94758.25;5114807;28;20764;-63
2021/11/28 09:26:25;;;;;;;4.37;3.37;;;;;;;3.06;83.12;94752.75;5085682;28;20652;-62
2021/11/28 09:28:51;;;;;;;3.57;2.97;;;;;;;3.20;83.15;94760.00;5094306;28;20394;-60
2021/11/28 09:31:16;;;;;;;4.57;2.95;;;;;;;3.07;83.53;94764.63;5094169;28;20398;-60
2021/11/28 09:33:48;;;;;;;3.80;2.90;;;;;;;3.49;81.25;94762.59;5099281;28;20467;-61
2021/11/28 09:36:13;;;;;;;4.40;2.90;;;;;;;3.38;81.07;94768.59;5105747;28;20390;-60
2021/11/28 09:38:39;;;;;;;3.30;2.83;;;;;;;3.57;80.69;94763.00;5094336;28;20392;-59
2021/11/28 09:41:09;;;;;;;3.75;2.83;;;;;;;3.69;80.14;94757.75;5109647;28;20394;-59
2021/11/28 09:43:39;;;;;;;3.92;2.97;;;;;;;3.66;80.42;94755.66;5113595;28;20392;-62
2021/11/28 09:46:05;;;;;;;4.55;3.15;;;;;;;3.83;80.30;94755.66;5106489;28;20409;-60
2021/11/28 09:48:33;;;;;;;5.18;3.15;;;;;;;4.08;79.44;94753.47;5094673;28;20451;-60
2021/11/28 09:51:04;;;;;;;3.53;2.83;;;;;;;4.14;78.28;94747.34;5112285;28;20407;-60
2021/11/28 09:53:32;;;;;;;5.90;4.95;;;;;;;3.84;81.07;94754.66;5113810;28;20752;-59
2021/11/28 09:55:58;;;;;;;5.22;4.72;;;;;;;3.79;82.18;94757.91;5104139;28;20915;-60
2021/11/28 09:58:25;;;;;;;4.85;4.22;;;;;;;3.82;82.12;94754.09;5093444;28;20455;-59
2021/11/28 10:00:51;;;;;;;4.40;3.75;;;;;;;4.16;80.57;94753.09;5094046;28;20393;-59
2021/11/28 10:03:17;;;;;;;4.20;3.20;;;;;;;4.10;79.66;94754.81;5113870;28;20757;-59
2021/11/28 10:05:43;;;;;;;3.63;2.65;;;;;;;4.13;79.20;94743.16;5112884;28;20454;-59
2021/11/28 10:08:09;;;;;;;3.47;2.60;;;;;;;4.08;79.37;94749.06;5099555;28;20409;-58
2021/11/28 10:10:34;;;;;;;2.80;2.45;;;;;;;4.39;77.43;94745.13;5093343;28;20390;-59
2021/11/28 10:13:00;;;;;;;2.60;2.20;;;;;;;4.06;78.68;94743.34;5094868;28;21813;-59
2021/11/28 10:15:28;;;;;;;3.92;2.50;;;;;;;3.95;78.61;94743.44;5093451;28;20405;-59
2021/11/28 10:17:54;;;;;;;2.75;2.47;;;;;;;4.00;78.06;94744.28;5093445;28;20394;-59
2021/11/28 10:20:25;;;;;;;4.35;2.90;;;;;;;4.03;79.02;94738.63;5110179;28;20465;-59
2021/11/28 10:22:51;;;;;;;2.63;2.42;;;;;;;4.04;78.25;94739.41;5099860;28;20877;-59
2021/11/28 10:25:25;;;;;;;4.10;2.93;;;;;;;4.02;79.02;94737.06;5112918;28;20511;-60
2021/11/28 10:27:56;;;;;;;3.88;2.50;;;;;;;3.86;78.69;94737.84;5113814;28;20402;-62
2021/11/28 10:30:28;;;;;;;2.80;2.40;;;;;;;4.17;77.53;94726.16;5098724;28;20388;-62
2021/11/28 10:32:56;;;;;;;2.97;2.55;;;;;;;4.23;78.36;94732.97;5105134;28;20405;-63
2021/11/28 10:35:22;;;;;;;4.40;2.60;;;;;;;4.33;77.16;94727.94;5100215;28;20384;-62
2021/11/28 10:37:50;;;;;;;4.35;2.83;;;;;;;4.54;76.75;94729.78;5101383;28;20395;-62
2021/11/28 10:40:23;;;;;;;2.13;2.00;;;;;;;4.38;76.87;94740.97;5111476;28;20849;-62
2021/11/28 10:42:50;;;;;;;3.95;2.30;;;;;;;4.51;76.54;94734.66;5097699;28;20391;-62
2021/11/28 10:45:21;;;;;;;4.30;2.50;;;;;;;4.51;77.18;94732.06;5102788;28;20414;-63
2021/11/28 10:47:51;;;;;;;3.28;2.35;;;;;;;4.26;76.21;94729.09;5104790;28;20430;-62
2021/11/28 10:50:25;;;;;;;3.80;2.50;;;;;;;4.69;75.96;94726.59;5107568;28;20392;-61
2021/11/28 10:53:02;;;;;;;4.25;2.60;;;;;;;4.67;76.20;94730.47;5104682;28;20417;-62
2021/11/28 10:55:33;;;;;;;2.92;2.10;;;;;;;5.08;74.41;94737.69;5096778;28;20404;-62
2021/11/28 10:58:07;;;;;;;4.15;2.40;;;;;;;4.51;76.82;94729.47;5094722;28;20420;-62
2021/11/28 11:00:34;;;;;;;2.80;2.10;;;;;;;4.55;76.39;94722.78;5097768;28;20425;-62
2021/11/28 11:03:12;;;;;;;2.50;2.30;;;;;;;4.62;76.09;94728.59;5098819;28;20484;-62
2021/11/28 11:05:37;;;;;;;2.80;2.15;;;;;;;4.82;74.94;94728.06;5107317;28;20424;-62
2021/11/28 11:08:05;;;;;;;2.60;2.23;;;;;;;4.63;75.66;94724.16;5111576;28;20884;-62
2021/11/28 11:10:33;;;;;;;2.53;2.00;;;;;;;4.54;75.40;94726.38;5108054;28;20483;-63
2021/11/28 11:13:00;;;;;;;3.60;2.00;;;;;;;4.69;74.33;94734.38;5098618;28;20403;-62
2021/11/28 11:15:50;;;;;;;2.10;1.90;;;;;;;4.81;73.95;94724.66;5102322;28;20390;-62
2021/11/28 11:18:21;;;;;;;2.40;2.00;;;;;;;4.52;74.68;94734.41;5108990;28;20449;-63
2021/11/28 11:20:51;;;;;;;3.05;2.00;;;;;;;4.58;74.55;94730.84;5107553;28;20742;-63
2021/11/28 11:23:37;;;;;;;2.53;1.83;;;;;;;4.75;73.60;94730.81;5101179;28;20388;-61
2021/11/28 11:26:21;;;;;;;3.20;2.03;;;;;;;4.57;74.62;94728.50;5101857;28;20405;-62
2021/11/28 11:29:14;;;;;;;2.67;2.10;;;;;;;4.49;74.06;94737.50;5096403;28;20740;-63
2021/11/28 11:31:54;;;;;;;3.58;2.88;;;;;;;4.36;75.49;94730.03;5099423;28;20936;-63
2021/11/28 11:34:25;;;;;;;2.85;2.53;;;;;;;4.56;75.19;94725.16;5107742;28;20487;-63
2021/11/28 11:37:02;;;;;;;2.47;2.28;;;;;;;4.50;74.01;94736.47;5093150;28;20893;-60
2021/11/28 11:39:30;;;;;;;3.13;2.20;;;;;;;4.51;75.14;94732.06;5099194;28;20446;-63
2021/11/28 11:41:56;;;;;;;3.47;2.03;;;;;;;4.60;73.04;94728.03;5099057;28;20425;-63
2021/11/28 11:44:26;;;;;;;2.67;2.20;;;;;;;4.50;74.58;94731.28;5111454;28;20389;-64
2021/11/28 11:46:54;;;;;;;4.40;4.00;;;;;;;4.46;77.28;94735.34;5104144;28;20501;-63
2021/11/28 11:49:19;;;;;;;5.32;4.10;;;;;;;4.23;79.07;94727.78;5098338;28;20396;-63